createdAt,value
2019-04-09T00:00:34.016Z,22.93
2019-04-09T00:03:29.717Z,23.73
2019-04-09T00:06:00.703Z,24.63
2019-04-09T00:08:33.722Z,24.27
2019-04-09T00:11:04.042Z,22.83
2019-04-09T00:13:34.157Z,24.17
2019-04-09T00:16:05.079Z,25.80
2019-04-09T00:18:35.892Z,23.13
2019-04-09T00:21:06.153Z,26.50
2019-04-09T00:23:35.996Z,23.07
2019-04-09T00:26:07.010Z,25.57
2019-04-09T00:28:37.622Z,24.70
2019-04-09T00:31:07.809Z,23.90
2019-04-09T00:33:38.469Z,25.33
2019-04-09T00:36:12.044Z,25.30
2019-04-09T00:38:43.371Z,25.40
2019-04-09T00:41:15.419Z,25.90
2019-04-09T00:43:46.113Z,25.13
2019-04-09T00:46:16.369Z,28.13
2019-04-09T00:48:47.546Z,27.13
2019-04-09T00:51:17.762Z,26.70
2019-04-09T00:53:49.298Z,27.50
2019-04-09T00:56:22.388Z,25.33
2019-04-09T00:58:52.920Z,27.43
2019-04-09T01:01:24.665Z,29.47
2019-04-09T01:03:55.908Z,27.60
2019-04-09T01:06:29.344Z,28.50
2019-04-09T01:09:01.182Z,29.23
2019-04-09T01:11:32.850Z,28.20
2019-04-09T01:14:05.434Z,29.67
2019-04-09T01:16:36.158Z,32.53
2019-04-09T01:19:15.790Z,33.50
2019-04-09T01:21:39.398Z,31.77
2019-04-09T01:24:09.635Z,31.33
2019-04-09T01:26:47.397Z,32.50
2019-04-09T01:29:32.121Z,33.93
2019-04-09T01:32:17.511Z,33.40
2019-04-09T01:35:09.906Z,33.43
2019-04-09T01:37:59.768Z,33.53
2019-04-09T01:40:52.524Z,32.87
2019-04-09T01:43:57.025Z,36.10
2019-04-09T01:46:55.644Z,35.17
2019-04-09T01:49:48.587Z,35.43
2019-04-09T01:52:51.049Z,35.03
2019-04-09T01:55:33.541Z,37.43
2019-04-09T01:58:21.145Z,36.23
2019-04-09T02:01:17.503Z,37.60
2019-04-09T02:03:53.926Z,35.53
2019-04-09T02:06:44.166Z,35.13
2019-04-09T02:09:19.841Z,35.03
2019-04-09T02:12:18.285Z,35.33
2019-04-09T02:15:04.913Z,35.07
2019-04-09T02:17:57.903Z,35.33
2019-04-09T02:20:45.759Z,35.80
2019-04-09T02:23:31.997Z,34.97
2019-04-09T02:26:20.529Z,36.13
2019-04-09T02:29:14.337Z,35.30
2019-04-09T02:32:07.164Z,35.37
2019-04-09T02:35:00.207Z,36.40
2019-04-09T02:37:59.345Z,33.83
2019-04-09T02:40:52.410Z,36.40
2019-04-09T02:43:40.970Z,34.40
2019-04-09T02:46:39.631Z,35.70
2019-04-09T02:49:30.752Z,35.20
2019-04-09T02:52:19.802Z,35.50
2019-04-09T02:55:14.295Z,35.70
2019-04-09T02:58:04.688Z,35.27
2019-04-09T03:01:11.746Z,35.80
2019-04-09T03:04:01.443Z,34.57
2019-04-09T03:06:48.366Z,34.27
2019-04-09T03:09:51.169Z,36.20
2019-04-09T03:12:37.454Z,34.87
2019-04-09T03:15:25.934Z,35.47
2019-04-09T03:18:25.018Z,35.83
2019-04-09T03:21:17.504Z,36.53
2019-04-09T03:24:09.886Z,35.67
2019-04-09T03:26:52.317Z,33.97
2019-04-09T03:29:44.894Z,36.63
2019-04-09T03:32:37.974Z,35.67
2019-04-09T03:35:33.848Z,33.77
2019-04-09T03:38:16.464Z,33.23
2019-04-09T03:40:54.918Z,35.20
2019-04-09T03:43:50.540Z,38.47
2019-04-09T03:46:45.771Z,33.80
2019-04-09T03:49:38.271Z,34.13
2019-04-09T03:52:25.502Z,32.07
2019-04-09T03:55:26.735Z,31.37
2019-04-09T03:58:15.623Z,31.50
2019-04-09T04:00:55.203Z,29.63
2019-04-09T04:03:40.615Z,28.83
2019-04-09T04:06:23.934Z,27.63
2019-04-09T04:08:59.096Z,26.57
2019-04-09T04:11:48.353Z,25.73
2019-04-09T04:14:47.301Z,24.97
2019-04-09T04:17:38.327Z,24.73
2019-04-09T04:20:31.261Z,24.57
2019-04-09T04:23:19.406Z,22.43
2019-04-09T04:26:02.579Z,24.90
2019-04-09T04:28:52.300Z,23.20
2019-04-09T04:31:47.160Z,22.90
2019-04-09T04:34:26.602Z,21.47
2019-04-09T04:37:15.259Z,23.67
2019-04-09T04:39:53.264Z,21.87
2019-04-09T04:42:39.386Z,23.20
2019-04-09T04:45:38.889Z,21.13
2019-04-09T04:48:27.719Z,19.80
2019-04-09T04:51:20.249Z,20.33
2019-04-09T04:54:15.635Z,22.70
2019-04-09T04:57:06.005Z,21.00
2019-04-09T05:00:01.028Z,19.70
2019-04-09T05:02:53.085Z,20.20
2019-04-09T05:05:27.665Z,18.50
2019-04-09T05:08:15.679Z,19.33
2019-04-09T05:11:02.840Z,18.40
2019-04-09T05:13:52.696Z,17.83
2019-04-09T05:16:56.509Z,17.33
2019-04-09T05:19:36.186Z,16.93
2019-04-09T05:22:23.218Z,16.10
2019-04-09T05:25:05.126Z,17.10
2019-04-09T05:28:10.105Z,16.10
2019-04-09T05:31:02.887Z,15.50
2019-04-09T05:33:52.022Z,15.27
2019-04-09T05:36:53.403Z,15.43
2019-04-09T05:39:42.406Z,15.37
2019-04-09T05:42:21.285Z,14.57
2019-04-09T05:45:01.412Z,13.60
2019-04-09T05:47:50.845Z,14.20
2019-04-09T05:50:41.968Z,13.87
2019-04-09T05:53:28.281Z,13.63
2019-04-09T05:56:10.403Z,14.10
2019-04-09T05:59:08.956Z,13.73
2019-04-09T06:01:52.918Z,14.83
2019-04-09T06:04:32.095Z,14.37
2019-04-09T06:07:26.977Z,14.53
2019-04-09T06:09:58.404Z,13.10
2019-04-09T06:12:31.051Z,12.77
2019-04-09T06:15:01.204Z,12.13
2019-04-09T06:17:31.040Z,12.13
2019-04-09T06:20:02.272Z,12.50
2019-04-09T06:22:33.050Z,12.10
2019-04-09T06:25:04.525Z,10.50
2019-04-09T06:27:34.526Z,10.77
2019-04-09T06:30:09.663Z,10.60
2019-04-09T06:32:48.897Z,11.00
2019-04-09T06:35:49.432Z,11.10
2019-04-09T06:38:37.110Z,11.73
2019-04-09T06:41:37.264Z,12.00
2019-04-09T06:44:26.671Z,16.30
2019-04-09T06:47:18.588Z,12.53
2019-04-09T06:50:07.289Z,10.80
2019-04-09T06:52:59.141Z,11.00
2019-04-09T06:55:45.027Z,11.93
2019-04-09T06:58:28.221Z,10.47
2019-04-09T07:01:33.030Z,12.03
2019-04-09T07:04:25.950Z,12.27
2019-04-09T07:07:15.848Z,13.87
2019-04-09T07:10:07.643Z,14.73
2019-04-09T07:12:55.592Z,15.00
2019-04-09T07:15:41.719Z,14.63
2019-04-09T07:18:37.654Z,18.10
2019-04-09T07:21:26.485Z,17.63
2019-04-09T07:24:31.964Z,19.13
2019-04-09T07:27:24.348Z,19.17
2019-04-09T07:30:13.734Z,19.23
2019-04-09T07:33:08.769Z,18.90
2019-04-09T07:35:54.797Z,17.30
2019-04-09T07:38:52.033Z,16.93
2019-04-09T07:41:43.350Z,16.30
2019-04-09T07:44:43.567Z,15.63
2019-04-09T07:47:38.868Z,18.23
2019-04-09T07:50:31.662Z,18.00
2019-04-09T07:53:22.753Z,19.53
2019-04-09T07:56:29.030Z,21.57
2019-04-09T07:59:17.919Z,21.47
2019-04-09T08:02:11.430Z,19.50
2019-04-09T08:05:05.456Z,18.40
2019-04-09T08:08:03.443Z,23.27
2019-04-09T08:10:58.138Z,19.23
2019-04-09T08:13:50.303Z,20.60
2019-04-09T08:16:39.822Z,19.73
2019-04-09T08:19:33.645Z,20.03
2019-04-09T08:22:12.449Z,19.27
2019-04-09T08:25:12.608Z,18.10
2019-04-09T08:28:20.676Z,18.63
2019-04-09T08:31:00.284Z,17.83
2019-04-09T08:34:00.502Z,20.40
2019-04-09T08:36:50.023Z,18.17
2019-04-09T08:39:48.923Z,20.53
2019-04-09T08:42:47.200Z,18.63
2019-04-09T08:45:36.740Z,19.00
2019-04-09T08:48:26.256Z,19.30
2019-04-09T08:51:13.523Z,21.10
2019-04-09T08:53:57.024Z,20.17
2019-04-09T08:56:31.554Z,21.13
2019-04-09T08:59:28.352Z,21.97
2019-04-09T09:02:19.525Z,20.60
2019-04-09T09:05:08.919Z,20.47
2019-04-09T09:07:51.561Z,21.90
2019-04-09T09:10:39.988Z,24.07
2019-04-09T09:13:22.597Z,23.43
2019-04-09T09:16:07.952Z,23.77
2019-04-09T09:19:04.452Z,25.33
2019-04-09T09:22:05.027Z,25.23
2019-04-09T09:25:00.140Z,27.10
2019-04-09T09:27:41.868Z,25.53
2019-04-09T09:30:36.565Z,25.40
2019-04-09T09:33:21.131Z,25.53
2019-04-09T09:36:10.448Z,25.60
2019-04-09T09:39:03.225Z,25.10
2019-04-09T09:41:50.529Z,25.07
2019-04-09T09:44:36.675Z,25.17
2019-04-09T09:47:24.841Z,27.13
2019-04-09T09:50:20.242Z,26.43
2019-04-09T09:53:07.954Z,27.50
2019-04-09T09:55:56.342Z,29.70
2019-04-09T09:58:49.083Z,28.30
2019-04-09T10:01:38.255Z,29.17
2019-04-09T10:04:25.801Z,28.00
2019-04-09T10:07:02.697Z,31.10
2019-04-09T10:09:57.897Z,30.37
2019-04-09T10:12:50.135Z,31.50
2019-04-09T10:15:57.368Z,30.70
2019-04-09T10:19:00.935Z,29.43
2019-04-09T10:21:49.707Z,32.03
2019-04-09T10:24:43.974Z,32.60
2019-04-09T10:27:33.157Z,32.20
2019-04-09T10:30:45.604Z,32.47
2019-04-09T10:33:37.232Z,32.90
2019-04-09T10:36:28.925Z,31.03
2019-04-09T10:39:20.561Z,31.50
2019-04-09T10:42:09.083Z,30.70
2019-04-09T10:44:57.298Z,28.03
2019-04-09T10:47:46.045Z,25.13
2019-04-09T10:50:45.185Z,24.20
2019-04-09T10:53:35.744Z,24.67
2019-04-09T10:56:18.194Z,26.00
2019-04-09T10:59:11.661Z,27.70
2019-04-09T11:01:54.507Z,27.27
2019-04-09T11:04:44.789Z,26.37
2019-04-09T11:07:34.615Z,23.83
2019-04-09T11:10:34.019Z,23.10
2019-04-09T11:13:18.673Z,25.73
2019-04-09T11:16:19.722Z,27.60
2019-04-09T11:19:20.297Z,23.37
2019-04-09T11:22:04.065Z,27.90
2019-04-09T11:24:52.415Z,27.53
2019-04-09T11:27:41.803Z,25.50
2019-04-09T11:30:26.908Z,26.40
2019-04-09T11:33:15.828Z,27.77
2019-04-09T11:35:59.395Z,26.50
2019-04-09T11:38:57.550Z,25.57
2019-04-09T11:41:43.389Z,24.00
2019-04-09T11:44:31.951Z,24.43
2019-04-09T11:47:21.405Z,26.70
2019-04-09T11:50:14.005Z,27.77
2019-04-09T11:53:10.003Z,25.53
2019-04-09T11:56:02.191Z,26.70
2019-04-09T11:58:55.828Z,26.33
2019-04-09T12:02:00.848Z,24.23
2019-04-09T12:04:40.258Z,25.00
2019-04-09T12:07:29.025Z,26.73
2019-04-09T12:10:18.525Z,22.73
2019-04-09T12:13:14.023Z,23.20
2019-04-09T12:16:06.880Z,22.70
2019-04-09T12:18:59.986Z,22.83
2019-04-09T12:21:46.064Z,27.57
2019-04-09T12:24:33.339Z,27.10
2019-04-09T12:27:22.780Z,26.20
2019-04-09T12:30:11.064Z,25.90
2019-04-09T12:33:09.420Z,25.43
2019-04-09T12:35:57.472Z,24.20
2019-04-09T12:38:47.444Z,25.40
2019-04-09T12:41:49.298Z,23.30
2019-04-09T12:44:32.063Z,23.03
2019-04-09T12:47:32.747Z,25.13
2019-04-09T12:50:30.107Z,25.37
2019-04-09T12:53:18.237Z,30.37
2019-04-09T12:56:06.867Z,27.20
2019-04-09T12:59:12.857Z,25.90
2019-04-09T13:01:55.287Z,25.47
2019-04-09T13:04:50.800Z,34.50
2019-04-09T13:07:43.045Z,28.20
2019-04-09T13:10:38.030Z,26.90
2019-04-09T13:13:34.582Z,27.57
2019-04-09T13:16:27.382Z,26.97
2019-04-09T13:19:25.095Z,26.40
2019-04-09T13:22:15.276Z,29.10
2019-04-09T13:24:58.852Z,26.60
2019-04-09T13:27:45.668Z,28.13
2019-04-09T13:30:36.557Z,28.37
2019-04-09T13:33:28.750Z,26.93
2019-04-09T13:36:24.102Z,26.37
2019-04-09T13:39:13.741Z,25.73
2019-04-09T13:42:02.556Z,25.40
2019-04-09T13:44:47.439Z,27.53
2019-04-09T13:47:35.952Z,26.70
2019-04-09T13:50:21.004Z,23.97
2019-04-09T13:52:54.170Z,23.20
2019-04-09T13:55:25.202Z,22.30
2019-04-09T13:57:56.261Z,22.97
2019-04-09T14:00:27.078Z,22.67
2019-04-09T14:03:31.453Z,23.33
2019-04-09T14:06:00.262Z,21.03
2019-04-09T14:08:31.262Z,24.10
2019-04-09T14:11:03.318Z,22.53
2019-04-09T14:13:34.185Z,22.37
2019-04-09T14:16:06.912Z,22.13
2019-04-09T14:18:38.761Z,21.73
2019-04-09T14:21:11.936Z,21.70
2019-04-09T14:23:43.932Z,22.40
2019-04-09T14:26:16.089Z,23.57
2019-04-09T14:28:48.126Z,23.23
2019-04-09T14:31:22.025Z,24.60
2019-04-09T14:33:57.626Z,24.43
2019-04-09T14:36:32.063Z,25.10
2019-04-09T14:39:10.419Z,26.90
2019-04-09T14:41:43.681Z,27.03
2019-04-09T14:44:16.070Z,26.27
2019-04-09T14:46:47.212Z,30.10
2019-04-09T14:49:21.303Z,29.87
2019-04-09T14:51:52.620Z,28.80
2019-04-09T14:54:24.026Z,28.40
2019-04-09T14:56:56.484Z,29.77
2019-04-09T14:59:28.442Z,31.60
2019-04-09T15:02:00.294Z,29.00
2019-04-09T15:04:31.264Z,28.07
2019-04-09T15:07:03.629Z,29.87
2019-04-09T15:09:36.198Z,29.67
2019-04-09T15:12:08.901Z,28.47
2019-04-09T15:14:42.425Z,25.33
2019-04-09T15:17:13.297Z,25.33
2019-04-09T15:19:44.596Z,24.40
2019-04-09T15:22:18.372Z,23.23
2019-04-09T15:24:49.193Z,24.23
2019-04-09T15:27:23.657Z,23.83
2019-04-09T15:29:56.495Z,23.17
2019-04-09T15:32:28.196Z,23.27
2019-04-09T15:35:00.366Z,21.63
2019-04-09T15:37:31.310Z,21.97
2019-04-09T15:40:03.308Z,21.77
2019-04-09T15:42:34.283Z,21.90
2019-04-09T15:45:07.012Z,21.77
2019-04-09T15:47:39.852Z,22.60
2019-04-09T15:50:14.334Z,24.10
2019-04-09T15:52:45.499Z,23.57
2019-04-09T15:55:19.249Z,22.97
2019-04-09T15:57:53.000Z,24.60
2019-04-09T16:00:28.291Z,26.37
2019-04-09T16:03:14.890Z,25.20
2019-04-09T16:05:38.626Z,28.20
2019-04-09T16:08:09.665Z,26.57
2019-04-09T16:10:41.462Z,25.70
2019-04-09T16:20:59.109Z,27.70
2019-04-09T16:23:32.450Z,27.87
2019-04-09T16:26:04.139Z,26.37
2019-04-09T16:28:35.992Z,25.53
2019-04-09T16:31:11.493Z,26.13
2019-04-09T16:33:46.684Z,25.23
2019-04-09T16:36:17.635Z,23.17
2019-04-09T16:39:21.968Z,24.40
2019-04-09T16:42:27.311Z,23.67
2019-04-09T16:44:59.218Z,25.30
2019-04-09T16:47:24.436Z,26.73
2019-04-09T16:49:56.428Z,25.30
2019-04-09T16:52:31.976Z,25.80
2019-04-09T16:55:06.418Z,25.63
2019-04-09T16:57:37.324Z,25.30
2019-04-09T17:00:11.450Z,23.27
2019-04-09T17:02:46.831Z,25.50
2019-04-09T17:05:18.646Z,24.30
2019-04-09T17:07:53.147Z,25.97
2019-04-09T17:10:24.681Z,24.00
2019-04-09T17:12:58.131Z,25.20
2019-04-09T17:15:31.981Z,25.70
2019-04-09T17:18:10.353Z,24.00
2019-04-09T17:20:49.910Z,24.47
2019-04-09T17:23:21.302Z,23.67
2019-04-09T17:25:53.377Z,24.97
2019-04-09T17:28:25.761Z,21.97
2019-04-09T17:30:57.261Z,23.60
2019-04-09T17:33:27.770Z,22.47
2019-04-09T17:36:00.968Z,19.87
2019-04-09T17:38:33.695Z,20.13
2019-04-09T17:41:08.468Z,19.50
2019-04-09T17:43:40.690Z,19.97
2019-04-09T17:46:21.751Z,18.47
2019-04-09T17:49:00.883Z,18.83
2019-04-09T17:51:47.194Z,20.13
2019-04-09T17:54:30.178Z,21.17
2019-04-09T17:57:09.412Z,20.73
2019-04-09T17:59:48.139Z,20.03
2019-04-09T18:02:22.840Z,19.77
2019-04-09T18:04:56.037Z,20.43
2019-04-09T18:07:40.485Z,21.40
2019-04-09T18:10:18.164Z,20.37
2019-04-09T18:12:55.535Z,20.57
2019-04-09T18:15:27.488Z,21.40
2019-04-09T18:18:00.015Z,21.37
2019-04-09T18:20:33.971Z,21.90
2019-04-09T18:23:05.753Z,21.23
2019-04-09T18:25:58.986Z,19.77
2019-04-09T18:28:28.302Z,20.10
2019-04-09T18:31:09.315Z,19.83
2019-04-09T18:33:36.306Z,21.17
2019-04-09T18:36:10.586Z,19.97
2019-04-09T18:38:41.352Z,20.90
2019-04-09T18:41:12.424Z,20.97
2019-04-09T18:43:44.694Z,20.60
2019-04-09T18:46:17.655Z,21.07
2019-04-09T18:48:50.892Z,20.83
2019-04-09T18:51:28.360Z,21.30
2019-04-09T18:53:59.707Z,21.63
2019-04-09T18:56:35.787Z,20.03
2019-04-09T18:59:09.861Z,22.07
2019-04-09T19:01:41.753Z,21.50
2019-04-09T19:04:17.444Z,21.07
2019-04-09T19:06:48.520Z,21.43
2019-04-09T19:09:26.237Z,21.00
2019-04-09T19:12:16.234Z,21.10
2019-04-09T19:14:46.578Z,21.60
2019-04-09T19:17:19.844Z,19.70
2019-04-09T19:19:51.037Z,20.87
2019-04-09T19:22:21.391Z,20.73
2019-04-09T19:24:51.921Z,20.63
2019-04-09T19:27:23.361Z,21.33
2019-04-09T19:29:54.057Z,22.47
2019-04-09T19:32:25.513Z,20.50
2019-04-09T19:34:56.171Z,22.30
2019-04-09T19:37:28.539Z,20.30
2019-04-09T19:40:27.981Z,21.53
2019-04-09T19:46:28.974Z,18.90
2019-04-09T19:52:41.286Z,16.87
2019-04-09T19:55:26.350Z,15.67
2019-04-09T19:58:02.165Z,15.47
2019-04-09T20:00:34.264Z,14.53
2019-04-09T20:03:05.219Z,13.40
2019-04-09T20:05:40.914Z,12.43
2019-04-09T20:08:11.500Z,11.27
2019-04-09T20:10:42.940Z,12.23
2019-04-09T20:13:16.043Z,11.70
2019-04-09T20:15:48.614Z,10.40
2019-04-09T20:18:19.662Z,10.33
2019-04-09T20:20:50.125Z,11.20
2019-04-09T20:23:24.198Z,10.27
2019-04-09T20:25:58.339Z,9.67
2019-04-09T20:28:31.959Z,9.40
2019-04-09T20:31:02.818Z,9.80
2019-04-09T20:33:35.943Z,9.63
2019-04-09T20:36:06.135Z,9.50
2019-04-09T20:38:36.184Z,10.50
2019-04-09T20:41:06.770Z,10.07
2019-04-09T20:43:38.640Z,11.00
2019-04-09T20:46:08.985Z,10.63
2019-04-09T20:48:39.751Z,15.63
2019-04-09T20:51:12.612Z,11.07
2019-04-09T20:53:42.849Z,10.73
2019-04-09T20:56:17.105Z,10.90
2019-04-09T20:58:46.939Z,11.60
2019-04-09T21:01:36.200Z,12.40
2019-04-09T21:04:10.267Z,11.73
2019-04-09T21:06:40.176Z,12.03
2019-04-09T21:09:14.938Z,11.93
2019-04-09T21:11:46.489Z,10.50
2019-04-09T21:14:17.904Z,11.50
2019-04-09T21:16:48.841Z,11.27
2019-04-09T21:19:19.268Z,10.97
2019-04-09T21:21:49.931Z,11.23
2019-04-09T21:24:21.526Z,10.77
2019-04-09T21:26:53.085Z,10.73
2019-04-09T21:29:23.201Z,13.43
2019-04-09T21:31:53.679Z,11.20
2019-04-09T21:34:25.139Z,10.07
2019-04-09T21:36:59.742Z,10.27
2019-04-09T21:39:32.089Z,10.27
2019-04-09T21:42:03.407Z,9.90
2019-04-09T21:44:37.409Z,10.77
2019-04-09T21:47:10.517Z,10.43
2019-04-09T21:49:40.532Z,10.63
2019-04-09T21:52:10.626Z,10.80
2019-04-09T21:54:45.137Z,9.73
2019-04-09T21:57:16.743Z,9.77
2019-04-09T21:59:47.117Z,14.03
2019-04-09T22:02:23.046Z,10.93
2019-04-09T22:04:56.565Z,9.90
2019-04-09T22:07:27.298Z,10.87
2019-04-09T22:09:58.851Z,11.33
2019-04-09T22:12:31.663Z,10.27
2019-04-09T22:15:02.879Z,10.00
2019-04-09T22:17:34.065Z,10.00
2019-04-09T22:20:07.777Z,10.50
2019-04-09T22:22:39.100Z,10.70
2019-04-09T22:25:10.255Z,10.70
2019-04-09T22:27:40.497Z,13.20
2019-04-09T22:30:14.406Z,10.40
2019-04-09T22:32:44.683Z,11.37
2019-04-09T22:35:15.095Z,9.43
2019-04-09T22:37:45.434Z,9.60
2019-04-09T22:40:19.252Z,11.17
2019-04-09T22:42:50.505Z,10.40
2019-04-09T22:45:21.642Z,9.00
2019-04-09T22:47:55.753Z,10.57
2019-04-09T22:50:26.060Z,10.70
2019-04-09T22:52:57.847Z,9.57
2019-04-09T22:55:30.050Z,9.50
2019-04-09T22:58:01.867Z,9.17
2019-04-09T23:00:51.160Z,10.40
2019-04-09T23:03:53.477Z,10.30
2019-04-09T23:06:47.547Z,9.90
2019-04-09T23:09:42.439Z,13.67
2019-04-09T23:12:22.523Z,9.30
2019-04-09T23:14:53.489Z,10.90
2019-04-09T23:17:25.932Z,10.73
2019-04-09T23:19:58.480Z,10.73
2019-04-09T23:22:29.911Z,10.33
2019-04-09T23:25:01.261Z,9.73
2019-04-09T23:27:32.580Z,9.97
2019-04-09T23:30:03.775Z,9.70
2019-04-09T23:32:35.949Z,10.13
2019-04-09T23:35:08.498Z,9.70
2019-04-09T23:37:39.794Z,9.97
2019-04-09T23:40:11.089Z,9.60
2019-04-09T23:42:43.469Z,9.60
2019-04-09T23:45:14.592Z,10.77
2019-04-09T23:47:45.788Z,9.40
2019-04-09T23:50:16.575Z,9.43
2019-04-09T23:52:48.335Z,10.27
2019-04-09T23:55:19.490Z,9.50
2019-04-09T23:57:50.985Z,9.87
